Nearby METAR Reports

 

KBAX - Bad Axe, Michigan, USA
Distance from station: ESE 22mi, 35km
Updated: Sat, 16-Oct-2021 5:15am EDT
Heavy rain, Overcast
Heavy rain, Overcast
 Wind from NW
Wind: NW 14 mph , 22 km/h, Gust: 21 mph , 33 km/h
Temperature: 52°F , 11°C
Dew Point: 52°F , 11°C
Humidity: 100%
Barometer: 29.74 inHg , 1007.1 hPa
Summary: Heavy rain
Clouds: Overcast
Visibility: 2 1/2 miles , 4 km
Cloud details: Partly cloudy 600 ft
Mostly cloudy 1900 ft
Overcast 4100 ft
2021/10/16 09:15 KBAX 160915Z AUTO 32012G18KT 2 1/2SM +RA SCT006 BKN019 OVC041 11/11 A2974 RMK AO2 T01060106
KFNT - Flint, Michigan, USA
Distance from station: SSW 68mi, 109km
Updated: Sat, 16-Oct-2021 4:53am EDT
Light rain, Overcast
Light rain, Overcast
 Wind from WNW
Wind: WNW 10 mph , 17 km/h
Temperature: 52°F , 11°C
Dew Point: 48°F , 9°C
Humidity: 88%
Barometer: 29.79 inHg , 1008.8 hPa
Summary: Light rain
Clouds: Overcast
Visibility: 10 miles , 16 km
Cloud details: Few Clouds 4800 ft
Overcast 7000 ft
2021/10/16 08:53 KFNT 160853Z AUTO 29009KT 10SM -RA FEW048 OVC070 11/09 A2979 RMK AO2 SLP089 P0003 60010 T01110089 56006 $
KMBS - Saginaw, Michigan, USA
Distance from station: SW 44mi, 70km
Updated: Sat, 16-Oct-2021 4:53am EDT
Light rain, Overcast
Light rain, Overcast
 Wind from W
Wind: W 9 mph , 15 km/h
Temperature: 52°F , 11°C
Dew Point: 46°F , 8°C
Humidity: 82%
Barometer: 29.79 inHg , 1008.8 hPa
Summary: Light rain
Clouds: Overcast
Visibility: 10 miles , 16 km
Cloud details: Overcast 6000 ft
2021/10/16 08:53 KMBS 160853Z 28008KT 10SM -RA OVC060 11/08 A2979 RMK AO2 SLP089 P0003 60005 T01060083 56008 $
 
KDTW - Detroit/Wayne, Michigan, USA
Distance from station: SSE 117mi, 188km
Updated: Sat, 16-Oct-2021 5:13am EDT
Overcast
Overcast
 Wind from WNW
Wind: WNW 13 mph , 20 km/h
Temperature: 52°F , 11°C
Dew Point: 48°F , 9°C
Humidity: 88%
Barometer: 29.78 inHg , 1008.5 hPa
Clouds: Overcast
Visibility: 9 miles , 14 km
Cloud details: Few Clouds 1000 ft
Mostly cloudy 2100 ft
Overcast 4400 ft
2021/10/16 09:13 KDTW 160913Z 30011KT 9SM FEW010 BKN021 OVC044 11/09 A2978 RMK AO2 RAE06 P0000 T01060089 $
KP58 - Port Hope, Michigan, USA
Distance from station: ENE 30mi, 48km
Updated: Sat, 16-Oct-2021 4:55am EDT

 Wind from WNW
Wind: WNW 14 mph , 22 km/h, Gust: 20 mph , 31 km/h
Temperature: 55°F , 13°C
Dew Point: 54°F , 12°C
Humidity: 94%
Barometer: 29.72 inHg , 1006.4 hPa
2021/10/16 08:55 KP58 160855Z AUTO 30012G17KT 13/12 A2972 RMK AO1 SLP063 P0014 60014 T01330117 58000
KCFS - Caro/Tuscola, Michigan, USA
Distance from station: S 31mi, 50km
Updated: Sat, 16-Oct-2021 4:55am EDT
Light rain, Overcast
Light rain, Overcast
 Wind from WNW
Wind: WNW 7 mph , 11 km/h
Temperature: 52°F , 11°C
Dew Point: 50°F , 10°C
Humidity: 94%
Barometer: 29.76 inHg , 1007.8 hPa
Summary: Light rain
Clouds: Overcast
Visibility: 10 miles , 16 km
Cloud details: Partly cloudy 800 ft
Partly cloudy 3600 ft
Overcast 4900 ft
2021/10/16 08:55 KCFS 160855Z AUTO 29006KT 10SM -RA SCT008 SCT036 OVC049 11/10 A2976 RMK AO2 T01080097
 
KPHN - Port Huron, Michigan, USA
Distance from station: SSE 81mi, 131km
Updated: Sat, 16-Oct-2021 5:15am EDT
Rain, Overcast
Rain, Overcast
 Wind from W
Wind: W 5 mph , 7 km/h
Temperature: 55°F , 13°C
Dew Point: 54°F , 12°C
Humidity: 94%
Barometer: 29.74 inHg , 1007.1 hPa
Summary: Rain
Clouds: Overcast
Visibility: 7 miles , 11 km
Cloud details: Partly cloudy 1300 ft
Mostly cloudy 7000 ft
Overcast 8500 ft
2021/10/16 09:15 KPHN 160915Z AUTO 26004KT 7SM RA SCT013 BKN070 OVC085 13/12 A2974 RMK AO2
KPTK - Pontiac, Michigan, USA
Distance from station: S 86mi, 138km
Updated: Sat, 16-Oct-2021 5:05am EDT
Light rain, Overcast
Light rain, Overcast
 Wind from WNW
Wind: WNW 9 mph , 15 km/h
Temperature: 50°F , 10°C
Wind Chill: 46°F , 8°C
Dew Point: 46°F , 8°C
Humidity: 88%
Barometer: 29.76 inHg , 1007.8 hPa
Summary: Light rain
Clouds: Overcast
Visibility: 10 miles , 16 km
Cloud details: Few Clouds 2700 ft
Overcast 7000 ft
2021/10/16 09:05 KPTK 160905Z AUTO 29008KT 10SM -RA FEW027 OVC070 10/08 A2976 RMK AO2 P0001 T01000083
KMTC - Selfridge Angb, Michigan, USA
Distance from station: SSE 94mi, 151km
Updated: Sat, 16-Oct-2021 4:56am EDT
Light rain, Partly cloudy
Light rain, Partly cloudy
 Wind from W
Wind: W 8 mph , 13 km/h
Temperature: 55°F , 13°C
Dew Point: 55°F , 13°C
Humidity: 100%
Barometer: 29.74 inHg , 1007.1 hPa
Summary: Light rain
Clouds: Partly cloudy
Visibility: 10 miles , 16 km
Cloud details: Partly cloudy 3400 ft
2021/10/16 08:56 KMTC 160856Z AUTO 28007KT 10SM -RA SCT034 13/13 A2974 RMK AO2 RAE0758RAB0759E05RAB12E18RAB22E28RAB32E38RAB44E50RAB51 SLP076 P0005 60010 T01310131 57007